Main page
METAR-TAF:

METAR-TAF

Airports :

Zanjan, Iran

latitude: 36-41N, longitude: 048-29E, elevation: 1663 m

Current weather observation

The report was made 2 hours and 14 minutes ago, at 15:00 UTC
Wind 25 kt from the East
Temperature 25°C
Humidity 39%
Pressure 1017 hPa
Visibility 10 km or more
Few clouds at a height of 3500 ft

METAR: OITZ 261500Z 08025KT 9999 FEW035 25/10 Q1017

Time: 21:44 (17:14 UTC)


TAF: missing

Weather observations and forecasts of more than 4000 airports (METAR and TAF reports).

The available stations are represented by yellow and red dots on the map.

Hover mouse over dot to see the name of the station.

Then click to see weather observations and forecasts.

To change the map : click on the green buttons with a black cross to zoom in, on the green button with a dash to zoom out, or on the green arrows for adjacent maps.


METAR-TAF: